createdAt,value
2023-01-19T00:01:36.671Z,99.90
2023-01-19T00:04:04.528Z,99.90
2023-01-19T00:06:32.572Z,99.90
2023-01-19T00:09:00.656Z,99.90
2023-01-19T00:11:28.476Z,99.90
2023-01-19T00:13:56.353Z,99.90
2023-01-19T00:16:25.666Z,99.90
2023-01-19T00:18:54.290Z,99.90
2023-01-19T00:21:22.585Z,99.90
2023-01-19T00:23:52.584Z,99.90
2023-01-19T00:26:22.177Z,99.90
2023-01-19T00:28:50.765Z,99.90
2023-01-19T00:31:20.545Z,99.90
2023-01-19T00:33:51.550Z,99.90
2023-01-19T00:36:20.181Z,99.90
2023-01-19T00:38:48.036Z,99.90
2023-01-19T00:41:15.863Z,99.90
2023-01-19T00:43:42.714Z,99.90
2023-01-19T00:46:10.755Z,99.90
2023-01-19T00:48:38.589Z,99.90
2023-01-19T00:51:07.785Z,99.90
2023-01-19T00:53:35.564Z,99.90
2023-01-19T00:56:03.400Z,99.90
2023-01-19T00:58:31.247Z,99.90
2023-01-19T01:01:03.605Z,99.90
2023-01-19T01:03:31.699Z,99.90
2023-01-19T01:05:59.764Z,99.90
2023-01-19T01:08:28.947Z,99.90
2023-01-19T01:10:57.067Z,99.90
2023-01-19T01:13:27.362Z,99.90
2023-01-19T01:15:56.405Z,99.90
2023-01-19T01:18:24.756Z,99.90
2023-01-19T01:20:55.259Z,99.90
2023-01-19T01:23:23.988Z,99.90
2023-01-19T01:25:53.161Z,99.90
2023-01-19T01:28:20.949Z,99.90
2023-01-19T01:30:48.891Z,99.90
2023-01-19T01:33:40.542Z,99.90
2023-01-19T01:36:04.768Z,99.90
2023-01-19T01:38:32.821Z,99.90
2023-01-19T01:41:01.951Z,99.90
2023-01-19T01:43:44.772Z,99.90
2023-01-19T01:46:15.434Z,99.90
2023-01-19T01:48:47.507Z,99.90
2023-01-19T01:51:27.387Z,99.90
2023-01-19T01:54:06.807Z,99.90
2023-01-19T01:56:39.618Z,99.90
2023-01-19T01:59:09.986Z,99.90
2023-01-19T02:01:55.446Z,99.90
2023-01-19T02:04:24.690Z,99.90
2023-01-19T02:07:09.940Z,99.90
2023-01-19T02:09:55.790Z,99.90
2023-01-19T02:12:43.332Z,99.90
2023-01-19T02:15:20.147Z,99.90
2023-01-19T02:17:48.234Z,99.90
2023-01-19T02:20:17.013Z,99.90
2023-01-19T02:22:48.973Z,99.90
2023-01-19T02:25:20.228Z,99.90
2023-01-19T02:27:50.102Z,99.90
2023-01-19T02:30:18.770Z,99.90
2023-01-19T02:32:46.884Z,99.90
2023-01-19T02:35:14.966Z,99.90
2023-01-19T02:37:44.983Z,99.90
2023-01-19T02:40:15.898Z,99.90
2023-01-19T02:42:47.284Z,99.90
2023-01-19T02:45:16.340Z,99.90
2023-01-19T02:47:46.716Z,99.90
2023-01-19T02:50:39.464Z,99.90
2023-01-19T02:53:18.560Z,99.90
2023-01-19T02:55:54.371Z,99.90
2023-01-19T02:58:31.756Z,99.90
2023-01-19T03:01:08.547Z,99.90
2023-01-19T03:03:47.935Z,99.90
2023-01-19T03:06:23.433Z,99.90
2023-01-19T03:08:56.195Z,99.90
2023-01-19T03:11:26.711Z,99.90
2023-01-19T03:14:00.893Z,99.90
2023-01-19T03:16:35.708Z,99.90
2023-01-19T03:19:09.676Z,99.90
2023-01-19T03:21:40.404Z,99.90
2023-01-19T03:24:11.754Z,99.90
2023-01-19T03:26:43.959Z,99.90
2023-01-19T03:29:15.221Z,99.90
2023-01-19T03:31:46.152Z,99.90
2023-01-19T03:34:16.158Z,99.90
2023-01-19T03:36:46.507Z,99.90
2023-01-19T03:39:18.954Z,99.90
2023-01-19T03:41:49.827Z,99.90
2023-01-19T03:44:19.599Z,99.90
2023-01-19T03:46:50.359Z,99.90
2023-01-19T03:49:18.742Z,99.90
2023-01-19T03:51:47.046Z,99.90
2023-01-19T03:54:14.814Z,99.90
2023-01-19T03:56:43.699Z,99.90
2023-01-19T03:59:11.483Z,99.90
2023-01-19T04:01:40.686Z,99.90
2023-01-19T04:04:08.559Z,99.90
2023-01-19T04:06:36.543Z,99.90
2023-01-19T04:09:04.389Z,99.90
2023-01-19T04:11:32.377Z,99.90
2023-01-19T04:14:00.177Z,99.90
2023-01-19T04:16:28.981Z,99.90
2023-01-19T04:18:58.131Z,99.90
2023-01-19T04:21:25.956Z,99.90
2023-01-19T04:23:54.139Z,99.90
2023-01-19T04:26:22.103Z,99.90
2023-01-19T04:28:49.881Z,99.90
2023-01-19T04:31:19.217Z,99.90
2023-01-19T04:33:47.017Z,99.90
2023-01-19T04:36:16.276Z,99.90
2023-01-19T04:38:44.423Z,99.90
2023-01-19T04:41:12.254Z,99.90
2023-01-19T04:43:40.009Z,99.90
2023-01-19T04:46:08.034Z,99.90
2023-01-19T04:48:35.837Z,99.90
2023-01-19T04:51:03.599Z,99.90
2023-01-19T04:53:32.711Z,99.90
2023-01-19T04:56:01.072Z,99.90
2023-01-19T04:58:28.827Z,99.90
2023-01-19T05:00:56.634Z,99.90
2023-01-19T05:03:26.514Z,99.90
2023-01-19T05:05:54.419Z,99.90
2023-01-19T05:08:22.311Z,99.90
2023-01-19T05:10:51.441Z,99.90
2023-01-19T05:13:19.314Z,99.90
2023-01-19T05:15:47.192Z,99.90
2023-01-19T05:18:14.939Z,99.90
2023-01-19T05:20:42.677Z,99.90
2023-01-19T05:23:10.452Z,99.90
2023-01-19T05:25:38.246Z,99.90
2023-01-19T05:28:07.611Z,99.90
2023-01-19T05:30:35.536Z,99.90
2023-01-19T05:33:03.796Z,99.90
2023-01-19T05:35:36.328Z,99.90
2023-01-19T05:38:04.614Z,99.90
2023-01-19T05:40:32.538Z,99.90
2023-01-19T05:43:01.657Z,99.90
2023-01-19T05:45:31.222Z,99.90
2023-01-19T05:47:59.006Z,99.90
2023-01-19T05:50:26.973Z,99.90
2023-01-19T05:52:54.776Z,99.90
2023-01-19T05:55:22.995Z,99.90
2023-01-19T05:57:51.021Z,99.90
2023-01-19T06:00:19.363Z,99.90
2023-01-19T06:02:49.326Z,99.90
2023-01-19T06:05:17.822Z,99.90
2023-01-19T06:07:45.694Z,99.90
2023-01-19T06:10:13.640Z,99.90
2023-01-19T06:12:41.909Z,99.90
2023-01-19T06:15:10.367Z,99.90
2023-01-19T06:17:38.218Z,99.90
2023-01-19T06:20:09.057Z,99.90
2023-01-19T06:22:36.869Z,99.90
2023-01-19T06:25:04.803Z,99.90
2023-01-19T06:27:32.616Z,99.90
2023-01-19T06:30:00.420Z,99.90
2023-01-19T06:32:28.412Z,99.90
2023-01-19T06:34:56.262Z,99.90
2023-01-19T06:37:27.204Z,99.90
2023-01-19T06:39:55.025Z,99.90
2023-01-19T06:42:22.812Z,99.90
2023-01-19T06:44:50.624Z,99.90
2023-01-19T06:47:18.504Z,99.90
2023-01-19T06:49:46.269Z,99.90
2023-01-19T06:52:16.054Z,99.90
2023-01-19T06:54:46.045Z,99.90
2023-01-19T06:57:14.228Z,99.90
2023-01-19T06:59:42.766Z,99.90
2023-01-19T07:02:27.347Z,99.90
2023-01-19T07:04:56.591Z,99.90
2023-01-19T07:07:24.462Z,99.90
2023-01-19T07:09:54.217Z,99.90
2023-01-19T07:12:22.445Z,99.90
2023-01-19T07:14:50.436Z,99.90
2023-01-19T07:17:18.297Z,99.90
2023-01-19T07:19:46.945Z,99.90
2023-01-19T07:22:14.779Z,99.90
2023-01-19T07:24:42.658Z,99.90
2023-01-19T07:27:12.432Z,99.90
2023-01-19T07:29:40.299Z,99.90
2023-01-19T07:32:08.217Z,99.90
2023-01-19T07:34:36.487Z,99.90
2023-01-19T07:37:04.762Z,99.90
2023-01-19T07:39:32.633Z,99.90
2023-01-19T07:42:00.506Z,99.90
2023-01-19T07:44:29.698Z,99.90
2023-01-19T07:46:57.556Z,99.90
2023-01-19T07:49:26.062Z,99.90
2023-01-19T07:51:56.247Z,99.90
2023-01-19T07:54:24.229Z,99.90
2023-01-19T07:56:54.780Z,99.90
2023-01-19T07:59:22.641Z,99.90
2023-01-19T08:01:53.411Z,99.90
2023-01-19T08:04:21.508Z,99.90
2023-01-19T08:06:49.387Z,99.90
2023-01-19T08:09:17.759Z,99.90
2023-01-19T08:11:45.724Z,99.90
2023-01-19T08:14:13.608Z,99.90
2023-01-19T08:16:41.440Z,99.90
2023-01-19T08:19:10.694Z,99.90
2023-01-19T08:21:39.063Z,99.90
2023-01-19T08:24:07.491Z,99.90
2023-01-19T08:26:36.357Z,99.90
2023-01-19T08:29:06.731Z,99.90
2023-01-19T08:31:34.708Z,99.90
2023-01-19T08:34:02.640Z,99.90
2023-01-19T08:36:32.107Z,99.90
2023-01-19T08:38:59.979Z,99.90
2023-01-19T08:41:28.149Z,99.90
2023-01-19T08:43:56.084Z,99.90
2023-01-19T08:46:23.943Z,99.90
2023-01-19T08:48:51.859Z,99.90
2023-01-19T08:51:20.244Z,99.90
2023-01-19T08:53:49.534Z,99.90
2023-01-19T08:56:20.472Z,99.90
2023-01-19T09:01:37.240Z,99.90
2023-01-19T09:04:05.570Z,99.90
2023-01-19T09:06:34.161Z,99.90
2023-01-19T09:09:03.785Z,99.90
2023-01-19T09:11:31.844Z,99.90
2023-01-19T09:13:59.854Z,99.90
2023-01-19T09:16:28.670Z,99.90
2023-01-19T09:18:56.769Z,99.90
2023-01-19T09:21:24.613Z,99.90
2023-01-19T09:23:54.626Z,99.90
2023-01-19T09:26:24.271Z,99.90
2023-01-19T09:28:52.152Z,99.90
2023-01-19T09:31:20.083Z,99.90
2023-01-19T09:33:48.054Z,99.90
2023-01-19T09:36:15.881Z,99.90
2023-01-19T09:38:43.704Z,99.90
2023-01-19T09:41:20.962Z,99.90
2023-01-19T09:43:53.831Z,99.90
2023-01-19T09:46:26.253Z,99.90
2023-01-19T09:48:56.495Z,99.90
2023-01-19T09:51:26.532Z,99.90
2023-01-19T09:54:03.953Z,99.90
2023-01-19T09:56:32.620Z,99.90
2023-01-19T09:59:02.436Z,99.90
2023-01-19T10:01:41.129Z,99.90
2023-01-19T10:04:29.110Z,99.90
2023-01-19T10:07:07.584Z,99.90
2023-01-19T10:09:41.471Z,99.90
2023-01-19T10:12:19.121Z,99.90
2023-01-19T10:14:59.084Z,99.90
2023-01-19T10:17:38.165Z,99.90
2023-01-19T10:20:12.779Z,99.90
2023-01-19T10:22:43.268Z,99.90
2023-01-19T10:25:18.283Z,99.90
2023-01-19T10:27:46.666Z,99.90
2023-01-19T10:30:23.236Z,99.90
2023-01-19T10:32:51.978Z,99.90
2023-01-19T10:35:25.328Z,99.90
2023-01-19T10:37:56.948Z,99.90
2023-01-19T10:40:31.972Z,99.90
2023-01-19T10:43:00.048Z,99.90
2023-01-19T10:45:31.913Z,99.90
2023-01-19T10:48:05.619Z,99.90
2023-01-19T10:50:35.296Z,99.90
2023-01-19T10:53:05.800Z,99.90
2023-01-19T10:55:38.209Z,99.90
2023-01-19T10:58:07.378Z,99.90
2023-01-19T11:00:38.174Z,99.90
2023-01-19T11:03:07.151Z,99.90
2023-01-19T11:05:35.418Z,99.90
2023-01-19T11:08:24.250Z,99.90
2023-01-19T11:11:02.359Z,99.90
2023-01-19T11:13:30.359Z,99.90
2023-01-19T11:16:05.219Z,99.90
2023-01-19T11:18:34.742Z,99.90
2023-01-19T11:21:06.456Z,99.90
2023-01-19T11:23:41.925Z,99.90
2023-01-19T11:26:15.740Z,99.90
2023-01-19T11:28:48.411Z,99.90
2023-01-19T11:31:28.958Z,99.90
2023-01-19T11:33:58.147Z,99.90
2023-01-19T11:36:28.659Z,99.90
2023-01-19T11:38:58.898Z,99.90
2023-01-19T11:41:29.573Z,99.90
2023-01-19T11:44:10.353Z,99.90
2023-01-19T11:46:44.316Z,99.90
2023-01-19T11:49:21.729Z,99.90
2023-01-19T11:51:57.435Z,99.90
2023-01-19T11:54:30.336Z,99.90
2023-01-19T11:57:00.232Z,99.90
2023-01-19T11:59:28.072Z,99.90
2023-01-19T12:02:00.218Z,99.90
2023-01-19T12:04:31.871Z,99.90
2023-01-19T12:07:05.090Z,99.90
2023-01-19T12:09:37.314Z,99.90
2023-01-19T12:12:08.560Z,99.90
2023-01-19T12:14:40.977Z,99.90
2023-01-19T12:17:16.832Z,99.90
2023-01-19T12:19:53.429Z,99.90
2023-01-19T12:22:23.782Z,99.90
2023-01-19T12:24:59.554Z,99.90
2023-01-19T12:27:39.401Z,99.90
2023-01-19T12:30:17.130Z,99.90
2023-01-19T12:32:46.318Z,99.90
2023-01-19T12:35:51.743Z,99.90
2023-01-19T12:38:36.363Z,99.90
2023-01-19T12:41:24.118Z,99.00
2023-01-19T12:44:33.963Z,98.10
2023-01-19T12:47:20.129Z,97.40
2023-01-19T12:49:52.726Z,95.50
2023-01-19T12:52:26.761Z,94.40
2023-01-19T12:55:15.126Z,93.60
2023-01-19T12:57:50.493Z,91.20
2023-01-19T13:00:40.388Z,90.40
2023-01-19T13:03:46.203Z,90.30
2023-01-19T13:06:15.337Z,89.80
2023-01-19T13:09:01.846Z,85.40
2023-01-19T13:11:34.341Z,85.40
2023-01-19T13:14:35.533Z,85.50
2023-01-19T13:17:20.194Z,82.30
2023-01-19T13:20:29.734Z,83.90
2023-01-19T13:23:18.515Z,82.40
2023-01-19T13:26:04.954Z,84.30
2023-01-19T13:28:42.963Z,84.20
2023-01-19T13:31:12.052Z,84.50
2023-01-19T13:33:46.926Z,85.70
2023-01-19T13:36:22.192Z,86.90
2023-01-19T13:38:52.193Z,87.10
2023-01-19T13:41:24.914Z,87.40
2023-01-19T13:44:00.920Z,88.90
2023-01-19T13:46:29.872Z,90.00
2023-01-19T13:49:00.955Z,90.20
2023-01-19T13:51:29.746Z,91.00
2023-01-19T13:54:01.587Z,91.30
2023-01-19T13:56:30.752Z,92.00
2023-01-19T13:59:09.926Z,92.40
2023-01-19T14:01:39.492Z,92.00
2023-01-19T14:04:08.012Z,92.40
2023-01-19T14:06:41.565Z,93.00
2023-01-19T14:09:18.841Z,93.10
2023-01-19T14:11:48.410Z,93.50
2023-01-19T14:14:24.394Z,94.00
2023-01-19T14:16:52.236Z,93.80
2023-01-19T14:19:20.123Z,93.60
2023-01-19T14:21:59.671Z,94.50
2023-01-19T14:24:46.639Z,95.30
2023-01-19T14:27:24.255Z,95.50
2023-01-19T14:29:54.712Z,95.30
2023-01-19T14:32:24.403Z,95.60
2023-01-19T14:34:53.947Z,96.20
2023-01-19T14:37:25.074Z,96.20
2023-01-19T14:39:59.064Z,96.20
2023-01-19T14:42:32.754Z,96.10
2023-01-19T14:45:03.828Z,96.40
2023-01-19T14:47:38.691Z,96.90
2023-01-19T14:50:20.152Z,97.40
2023-01-19T14:52:53.773Z,98.20
2023-01-19T14:55:26.619Z,98.00
2023-01-19T14:57:55.772Z,98.30
2023-01-19T15:00:24.126Z,98.60
2023-01-19T15:02:51.912Z,99.40
2023-01-19T15:05:19.859Z,98.20
2023-01-19T15:07:48.472Z,98.40
2023-01-19T15:10:20.660Z,98.60
2023-01-19T15:12:50.720Z,99.30
2023-01-19T15:15:22.628Z,99.20
2023-01-19T15:17:51.190Z,99.50
2023-01-19T15:20:20.687Z,99.20
2023-01-19T15:22:49.129Z,99.20
2023-01-19T15:25:19.265Z,99.50
2023-01-19T15:27:49.553Z,99.90
2023-01-19T15:30:20.370Z,99.90
2023-01-19T15:32:48.871Z,99.90
2023-01-19T15:35:19.012Z,99.90
2023-01-19T15:37:47.247Z,99.90
2023-01-19T15:40:15.668Z,99.90
2023-01-19T15:42:43.732Z,99.90
2023-01-19T15:45:37.681Z,99.90
2023-01-19T15:48:07.159Z,99.90
2023-01-19T15:50:38.704Z,99.90
2023-01-19T15:53:07.141Z,99.90
2023-01-19T15:55:34.981Z,99.90
2023-01-19T15:58:02.761Z,99.90
2023-01-19T16:00:31.761Z,99.90
2023-01-19T16:03:02.488Z,99.90
2023-01-19T16:05:42.571Z,99.90
2023-01-19T16:08:11.430Z,99.90
2023-01-19T16:10:39.255Z,99.90
2023-01-19T16:13:07.251Z,99.90
2023-01-19T16:15:36.371Z,99.90
2023-01-19T16:18:06.715Z,99.90
2023-01-19T16:20:34.923Z,99.90
2023-01-19T16:23:14.616Z,99.90
2023-01-19T16:25:43.349Z,99.90
2023-01-19T16:28:11.475Z,99.90
2023-01-19T16:30:39.379Z,99.90
2023-01-19T16:33:11.548Z,99.90
2023-01-19T16:35:39.464Z,99.90
2023-01-19T16:38:09.378Z,99.90
2023-01-19T16:40:37.345Z,99.90
2023-01-19T16:43:05.265Z,99.90
2023-01-19T16:45:33.118Z,99.90
2023-01-19T16:48:01.399Z,99.90
2023-01-19T16:50:30.556Z,99.90
2023-01-19T16:52:59.008Z,99.90
2023-01-19T16:55:26.844Z,99.90
2023-01-19T16:57:56.429Z,99.90
2023-01-19T17:00:24.491Z,99.90
2023-01-19T17:02:52.417Z,99.90
2023-01-19T17:05:20.291Z,99.90
2023-01-19T17:07:49.688Z,99.90
2023-01-19T17:10:17.737Z,99.90
2023-01-19T17:12:45.595Z,99.90
2023-01-19T17:15:14.387Z,99.90
2023-01-19T17:17:42.219Z,99.90
2023-01-19T17:20:11.425Z,99.90
2023-01-19T17:22:39.447Z,99.90
2023-01-19T17:25:09.421Z,99.90
2023-01-19T17:27:37.359Z,99.90
2023-01-19T17:30:05.569Z,99.90
2023-01-19T17:32:33.351Z,99.90
2023-01-19T17:35:01.153Z,99.90
2023-01-19T17:37:29.015Z,99.90
2023-01-19T17:39:57.215Z,99.90
2023-01-19T17:42:26.399Z,99.90
2023-01-19T17:44:54.201Z,99.90
2023-01-19T17:47:25.395Z,99.90
2023-01-19T17:49:53.275Z,99.90
2023-01-19T17:52:21.070Z,99.90
2023-01-19T17:54:48.873Z,99.90
2023-01-19T17:57:16.638Z,99.90
2023-01-19T17:59:47.198Z,99.90
2023-01-19T18:02:15.095Z,99.90
2023-01-19T18:04:43.099Z,99.90
2023-01-19T18:07:10.914Z,99.90
2023-01-19T18:09:38.738Z,99.90
2023-01-19T18:12:06.769Z,99.90
2023-01-19T18:14:40.193Z,99.90
2023-01-19T18:17:09.314Z,99.90
2023-01-19T18:19:37.095Z,99.90
2023-01-19T18:22:04.847Z,99.90
2023-01-19T18:24:32.652Z,99.90
2023-01-19T18:27:00.449Z,99.90
2023-01-19T18:29:28.303Z,99.90
2023-01-19T18:31:56.175Z,99.90
2023-01-19T18:34:26.399Z,99.90
2023-01-19T18:36:54.320Z,99.90
2023-01-19T18:39:22.139Z,99.90
2023-01-19T18:41:49.948Z,99.90
2023-01-19T18:44:18.031Z,99.90
2023-01-19T18:46:45.915Z,99.90
2023-01-19T18:49:14.044Z,99.90
2023-01-19T18:51:43.208Z,99.90
2023-01-19T18:54:12.589Z,99.90
2023-01-19T18:56:40.515Z,99.90
2023-01-19T18:59:08.292Z,99.90
2023-01-19T19:01:36.587Z,99.90
2023-01-19T19:04:04.595Z,99.90
2023-01-19T19:06:32.523Z,99.90
2023-01-19T19:09:01.904Z,99.90
2023-01-19T19:11:29.754Z,99.90
2023-01-19T19:14:00.200Z,99.90
2023-01-19T19:16:28.827Z,99.90
2023-01-19T19:18:56.819Z,99.90
2023-01-19T19:21:25.266Z,99.90
2023-01-19T19:23:53.572Z,99.90
2023-01-19T19:26:23.335Z,99.90
2023-01-19T19:28:51.155Z,99.90
2023-01-19T19:31:20.967Z,99.90
2023-01-19T19:33:51.454Z,99.90
2023-01-19T19:36:24.150Z,99.90
2023-01-19T19:38:55.211Z,99.90
2023-01-19T19:41:26.891Z,99.90
2023-01-19T19:43:55.587Z,99.90
2023-01-19T19:46:25.007Z,99.90
2023-01-19T19:48:53.678Z,99.90
2023-01-19T19:51:23.580Z,99.90
2023-01-19T19:53:52.503Z,99.90
2023-01-19T19:56:22.106Z,99.90
2023-01-19T19:58:52.181Z,99.90
2023-01-19T20:01:24.136Z,99.90
2023-01-19T20:03:53.876Z,99.90
2023-01-19T20:06:23.984Z,99.90
2023-01-19T20:08:53.667Z,99.90
2023-01-19T20:11:24.405Z,99.90
2023-01-19T20:13:53.952Z,99.90
2023-01-19T20:16:23.886Z,99.90
2023-01-19T20:18:54.214Z,99.90
2023-01-19T20:21:24.095Z,99.90
2023-01-19T20:23:52.983Z,99.90
2023-01-19T20:26:22.904Z,99.90
2023-01-19T20:28:50.748Z,99.90
2023-01-19T20:31:22.092Z,99.90
2023-01-19T20:33:51.489Z,99.90
2023-01-19T20:36:21.957Z,99.90
2023-01-19T20:38:49.781Z,99.90
2023-01-19T20:41:18.323Z,99.90
2023-01-19T20:43:46.364Z,99.90
2023-01-19T20:46:14.725Z,99.90
2023-01-19T20:48:43.996Z,99.90
2023-01-19T20:51:13.670Z,99.90
2023-01-19T20:53:42.546Z,99.90
2023-01-19T20:56:12.692Z,99.90
2023-01-19T20:58:41.097Z,99.90
2023-01-19T21:01:13.396Z,99.90
2023-01-19T21:03:43.033Z,99.90
2023-01-19T21:06:11.357Z,99.90
2023-01-19T21:08:39.740Z,99.90
2023-01-19T21:11:08.541Z,99.90
2023-01-19T21:13:37.290Z,99.90
2023-01-19T21:16:05.611Z,99.90
2023-01-19T21:18:33.570Z,99.90
2023-01-19T21:21:02.678Z,99.90
2023-01-19T21:23:30.512Z,99.90
2023-01-19T21:25:59.912Z,99.90
2023-01-19T21:28:29.064Z,99.90
2023-01-19T21:30:57.328Z,99.90
2023-01-19T21:33:25.545Z,99.90
2023-01-19T21:35:54.547Z,99.90
2023-01-19T21:38:24.850Z,99.90
2023-01-19T21:40:52.608Z,99.90
2023-01-19T21:43:20.564Z,99.90
2023-01-19T21:45:49.467Z,99.90
2023-01-19T21:48:18.380Z,99.90
2023-01-19T21:50:46.182Z,99.90
2023-01-19T21:53:14.113Z,99.90
2023-01-19T21:55:46.168Z,99.90
2023-01-19T21:58:13.967Z,99.90
2023-01-19T22:00:41.942Z,99.90
2023-01-19T22:03:09.786Z,99.90
2023-01-19T22:05:37.689Z,99.90
2023-01-19T22:08:06.297Z,99.90
2023-01-19T22:10:36.610Z,99.90
2023-01-19T22:13:06.662Z,99.90
2023-01-19T22:15:34.733Z,99.90
2023-01-19T22:18:02.619Z,99.90
2023-01-19T22:20:30.439Z,99.90
2023-01-19T22:22:58.573Z,99.90
2023-01-19T22:25:27.922Z,99.90
2023-01-19T22:27:56.164Z,99.90
2023-01-19T22:30:25.336Z,99.90
2023-01-19T22:32:53.985Z,99.90
2023-01-19T22:35:22.159Z,99.90
2023-01-19T22:37:49.962Z,99.90
2023-01-19T22:40:18.474Z,99.90
2023-01-19T22:42:47.751Z,99.90
2023-01-19T22:45:16.104Z,99.90
2023-01-19T22:47:47.487Z,99.90
2023-01-19T22:50:15.783Z,99.90
2023-01-19T22:52:43.649Z,99.90
2023-01-19T22:55:11.939Z,99.90
2023-01-19T22:57:40.013Z,99.90
2023-01-19T23:00:09.568Z,99.90
2023-01-19T23:02:37.406Z,99.90
2023-01-19T23:05:07.511Z,99.90
2023-01-19T23:07:35.294Z,99.90
2023-01-19T23:10:03.046Z,99.90
2023-01-19T23:12:30.814Z,99.90
2023-01-19T23:14:58.597Z,99.90
2023-01-19T23:17:26.355Z,99.90
2023-01-19T23:19:54.102Z,99.90
2023-01-19T23:22:23.193Z,99.90
2023-01-19T23:24:50.949Z,99.90
2023-01-19T23:27:18.748Z,99.90
2023-01-19T23:29:46.882Z,99.90
2023-01-19T23:32:14.665Z,99.90
2023-01-19T23:34:42.453Z,99.90
2023-01-19T23:37:10.216Z,99.90
2023-01-19T23:39:39.287Z,99.90
2023-01-19T23:42:08.091Z,99.90
2023-01-19T23:44:36.012Z,99.90
2023-01-19T23:47:03.836Z,99.90
2023-01-19T23:49:31.591Z,99.90
2023-01-19T23:51:59.384Z,99.90
2023-01-19T23:54:27.184Z,99.90
2023-01-19T23:56:56.314Z,99.90
2023-01-19T23:59:24.065Z,99.90
